• Join FlightAware (Why Join?)
  • Login
  • US Flag 
Gobble Gobble! 
06:32PM EST


 

Airport Tracker/Info


-or-


 

Live Flight TrackerFlight Track Log ✈ RPA3253 ✈ 22-Jun-2013 ✈ KORD - KCLT

Flight Track Log - Related Links

Times and Time Zones

All times are in EDT time to prevent confusion due to time zone crossing. See the RPA3253 flight status page for this flight to view local times or setup timezone preferences in your user account.

Time Position Orientation Groundspeed Altitude Reporting Facility
EDT Latitude Longitude Course Direction KTS MPH feet Rate Location/Type
07:50PM 41.9375 -87.9069 90° East 170 196 1,800  Level Chicago Center
07:51PM 41.9136 -87.8372 115° Southeast 214 246 3,500 1,800 Climbing Chicago Center
07:52PM 41.9014 -87.7381 99° East 267 307 5,600 1,860 Climbing Chicago Center
07:53PM 41.8986 -87.6233 92° East 305 351 7,400 2,400 Climbing Chicago Center
07:54PM 41.9333 -87.0922 90° East  Level FlightAware Approximate
07:54PM 41.9089 -87.5133 83° East 301 346 10,600  Level Chicago Center
07:55PM 41.9333 -86.9301 90° East  Level FlightAware Approximate
07:55PM 41.9178 -87.4019 84° East 302 348 12,900  Level Chicago Center
07:56PM 41.9283 -87.2758 84° East 342 394 13,800 1,500 Climbing Chicago Center
07:57PM 41.9417 -87.1022 84° East 388 447 16,000 2,040 Climbing Chicago Center
07:58PM 41.9472 -86.9525 87° East 401 461 18,000 1,980 Climbing Chicago Center
07:59PM 41.9483 -86.8028 89° East 404 465 20,100 1,920 Climbing Chicago Center
08:00PM 41.9503 -86.6556 89° East 409 471 22,000 1,620 Climbing Chicago Center
08:01PM 41.9525 -86.5022 89° East 413 475 23,500 1,380 Climbing Chicago Center
08:02PM 41.9544 -86.3444 89° East 419 482 24,900 1,200 Climbing Chicago Center
08:04PM 41.8853 -86.1768 120° Southeast  Level FlightAware Approximate
08:04PM 41.8756 -86.0153 120° Southeast 433 498 27,300  Level Chicago Center
08:05PM 41.8092 -85.8775 123° Southeast 440 506 28,400 780 Climbing Chicago Center
08:06PM 41.7425 -85.7381 123° Southeast 443 510 29,000 240 Climbing Chicago Center
08:07PM 41.6925 -85.5803 113° Southeast 464 534 29,000  Level Chicago Center
08:08PM 41.6422 -85.3933 110° East 475 547 29,000  Level Chicago Center
08:09PM 41.5739 -85.2439 121° Southeast 484 557 29,000  Level Chicago Center
08:10PM 41.4997 -85.0989 124° Southeast 478 550 29,000  Level Chicago Center
08:11PM 41.4253 -84.9564 125° Southeast 470 541 29,000  Level Chicago Center
08:12PM 41.3583 -84.8261 124° Southeast 436 502 29,000  Level Chicago Center
08:13PM 41.2753 -84.6669 125° Southeast 436 502 29,000  Level Chicago Center
08:14PM 41.2031 -84.5303 125° Southeast 450 518 29,000  Level Chicago Center
08:15PM 41.1308 -84.3928 125° Southeast 456 525 29,000  Level Chicago Center
08:16PM 41.0564 -84.2539 125° Southeast 462 532 29,000  Level Chicago Center
08:17PM 40.9844 -84.1139 124° Southeast 461 531 29,000  Level Chicago Center
08:19PM 40.9089 -83.9756 126° Southeast 464 534 29,000  Level Chicago Center
08:20PM 40.8339 -83.8342 125° Southeast 469 540 29,000  Level Chicago Center
08:21PM 40.7836 -83.6794 113° Southeast 463 533 29,000  Level Chicago Center
08:22PM 40.7350 -83.4861 108° East 464 534 29,000  Level Chicago Center
08:23PM 40.6997 -83.2858 103° East 463 533 29,000  Level Indianapolis Center
08:24PM 40.6703 -83.1250 104° East 459 528 29,000  Level Indianapolis Center
08:25PM 40.6175 -82.9728 115° Southeast 467 537 29,000  Level Indianapolis Center
08:26PM 40.5072 -82.8694 145° Southeast 471 542 29,000  Level Indianapolis Center
08:27PM 40.3681 -82.7947 158° South 477 549 29,000  Level Indianapolis Center
08:28PM 40.2461 -82.7314 158° South 470 541 29,000  Level Indianapolis Center
08:29PM 40.1364 -82.6747 158° South 471 542 29,000  Level Indianapolis Center
08:30PM 40.0108 -82.6086 158° South 479 551 29,000  Level Indianapolis Center
08:31PM 39.8850 -82.5433 158° South 479 551 29,000  Level Indianapolis Center
08:32PM 39.7597 -82.4794 159° South 478 550 29,000  Level Indianapolis Center
08:33PM 39.6178 -82.4058 158° South 467 537 29,000  Level Indianapolis Center
08:34PM 39.4939 -82.3428 159° South 469 540 29,000  Level Indianapolis Center
08:35PM 39.3900 -82.2892 158° South 471 542 29,000  Level Indianapolis Center
08:36PM 39.2681 -82.2286 159° South 471 542 29,000  Level Indianapolis Center
08:37PM 39.1242 -82.1539 158° South 466 536 29,000  Level Indianapolis Center
08:38PM 39.0033 -82.0933 159° South 466 536 29,000  Level Indianapolis Center
08:39PM 38.8839 -82.0344 159° South 463 533 29,000  Level Indianapolis Center
08:40PM 38.7661 -81.9756 159° South 458 527 29,000  Level Indianapolis Center
08:41PM 38.6472 -81.9169 159° South 460 529 29,000  Level Indianapolis Center
08:42PM 38.5292 -81.8583 159° South 460 529 29,000  Level Indianapolis Center
08:43PM 38.4106 -81.7994 159° South 462 532 29,000  Level Indianapolis Center
08:44PM 38.2839 -81.7822 174° South 464 534 29,000  Level Indianapolis Center
08:45PM 38.1556 -81.8067 189° South 468 539 29,000  Level Indianapolis Center
08:46PM 38.0014 -81.8364 189° South 466 536 29,000  Level Indianapolis Center
08:47PM 37.8747 -81.8603 188° South 460 529 29,000  Level Indianapolis Center
08:48PM 37.7611 -81.8822 189° South 460 529 29,000  Level Indianapolis Center
08:49PM 37.6142 -81.9103 189° South 455 524 29,000  Level Indianapolis Center
08:50PM 37.4875 -81.9342 189° South 457 526 29,000  Level Indianapolis Center
08:51PM 37.3628 -81.9572 188° South 453 521 29,000  Level Indianapolis Center
08:52PM 37.2375 -81.9806 188° South 452 520 29,000  Level Indianapolis Center
08:53PM 37.1128 -82.0039 188° South 450 518 29,000  Level Indianapolis Center
08:54PM 36.9892 -82.0275 189° South 447 514 29,000 -600 Level Indianapolis Center
08:55PM 36.8689 -82.0492 188° South 436 502 27,800 -1,380 Descending Indianapolis Center
08:56PM 36.7553 -82.0714 189° South 419 482 26,300 -1,500 Descending Indianapolis Center
08:58PM 36.6419 -82.0922 188° South 410 472 24,800 -1,140 Descending Indianapolis Center
08:59PM 36.5294 -82.1131 188° South 409 471 24,000 -420 Descending Indianapolis Center
09:00PM 36.4194 -82.1122 180° South 405 466 24,000  Level Indianapolis Center
09:01PM 36.3206 -82.0494 153° Southeast 401 461 24,000  Level Indianapolis Center
09:02PM 36.2186 -81.9833 152° Southeast 410 472 24,000 -900 Level Indianapolis Center
09:03PM 36.1181 -81.9167 152° Southeast 409 471 22,200 -2,040 Descending Indianapolis Center
09:04PM 35.9842 -81.8319 153° Southeast 409 471 19,500 -2,100 Descending Atlanta Center
09:05PM 35.8914 -81.7728 153° Southeast 392 451 17,600 -1,980 Descending Atlanta Center
09:06PM 35.7964 -81.7114 152° Southeast 381 438 15,600 -1,800 Descending Atlanta Center
09:07PM 35.7181 -81.6600 152° Southeast 375 432 14,000 -1,800 Descending Atlanta Center
09:08PM 35.6272 -81.6014 152° Southeast 369 425 12,000 -1,020 Descending Atlanta Center
09:09PM 35.5589 -81.5167 135° Southeast 357 411 12,000 -240 Level Atlanta Center
09:10PM 35.4964 -81.4189 128° Southeast 351 404 11,600 -1,020 Descending Atlanta Center
09:11PM 35.4339 -81.3267 130° Southeast 357 411 10,000 -840 Descending Atlanta Center
09:12PM 35.3733 -81.2369 130° Southeast 352 405 10,000 -120 Level Atlanta Center
09:13PM 35.3150 -81.1525 130° Southeast 342 394 9,800 -900 Descending Atlanta Center
09:14PM 35.2611 -81.0806 133° Southeast 308 354 8,300 -1,560 Descending Atlanta Center
09:15PM 35.1817 -81.0681 173° South 270 311 6,700 -1,740 Descending Atlanta Center
09:16PM 35.0750 -81.0567 175° South 270 311 4,300 -1,200 Descending Atlanta Center
09:17PM 35.0564 -80.9864 108° East 264 304 4,000 -300 Descending Atlanta Center